• Join FlightAware (Why Join?)
  • Login
  • US Flag 
05:42PM EDT


 

Airport Tracker/Info


-or-


 

Live Flight TrackerFlight Track Log ✈ TAM3095 ✈ 25-Aug-2013 ✈ SBVT / VIX - SBGL / GIG

Flight Track Log - Related Links

Times and Time Zones

All times are in EDT time to prevent confusion due to time zone crossing. See the TAM3095 flight status page for this flight to view local times or setup timezone preferences in your user account.

Time Position Orientation Groundspeed Altitude Reporting Facility
EDT Latitude Longitude Course Direction KTS MPH feet Rate Location/Type
03:52PM -20.2570 -40.2890 107° East 116 133  Level FlightAware
03:54PM -20.2570 -40.2890 227° Southwest 116 133  Level FlightAware
03:55PM -20.3642 -40.4099 227° Southwest  Level Estimated
03:57PM -20.3642 -40.4099 227° Southwest  Level Estimated
03:58PM -20.4156 -40.4680 227° Southwest  Level Estimated
03:58PM -20.2570 -40.2890 227° Southwest 116 133  Level FlightAware
03:59PM -20.2610 -40.2770 110° East 116 133  Level FlightAware
03:59PM -20.2570 -40.2890 290° West 116 133  Level FlightAware
04:00PM -20.2610 -40.2760 108° East 116 133  Level FlightAware
04:00PM -20.2570 -40.2890 288° West 116 133  Level FlightAware
04:01PM -20.2610 -40.2760 108° East 116 133  Level FlightAware
04:03PM -20.3559 -40.3837 227° Southwest  Level Estimated
04:03PM -20.2610 -40.2760 227° Southwest 116 133  Level FlightAware
04:03PM -20.2570 -40.2890 288° West 116 133  Level FlightAware
04:04PM -20.2610 -40.2770 110° East 116 133  Level FlightAware
04:04PM -20.2570 -40.2890 290° West 116 133  Level FlightAware
04:06PM -20.2610 -40.2760 227° Southwest 116 133  Level FlightAware
04:07PM -20.3693 -40.4157 227° Southwest  Level Estimated
04:07PM -20.2570 -40.2890 288° West 116 133  Level FlightAware
04:08PM -20.2610 -40.2760 108° East 116 133  Level FlightAware
04:08PM -20.2610 -40.2770 270° West 116 133  Level FlightAware
04:09PM -20.2570 -40.2890 290° West 116 133  Level FlightAware
04:09PM -20.2610 -40.2770 110° East 116 133  Level FlightAware
04:10PM -20.2610 -40.2760 90° East 116 133  Level FlightAware
04:11PM -20.2570 -40.2890 288° West 116 133  Level FlightAware
04:13PM -20.2610 -40.2770 110° East 116 133  Level FlightAware
04:13PM -20.2570 -40.2890 290° West 116 133  Level FlightAware
04:13PM -20.2610 -40.2770 110° East 116 133  Level FlightAware
04:14PM -20.2570 -40.2890 290° West 116 133  Level FlightAware
04:15PM -20.2610 -40.2770 110° East 116 133  Level FlightAware
04:15PM -20.2570 -40.2890 290° West 116 133  Level FlightAware
04:16PM -20.2610 -40.2770 110° East 116 133  Level FlightAware
04:17PM -20.2570 -40.2890 290° West 116 133  Level FlightAware
04:18PM -20.2610 -40.2760 108° East 116 133  Level FlightAware
04:19PM -20.2570 -40.2890 288° West 116 133  Level FlightAware
04:19PM -20.2610 -40.2760 108° East 116 133  Level FlightAware
04:20PM -20.2610 -40.2770 270° West 116 133  Level FlightAware
04:21PM -20.2570 -40.2890 290° West 116 133  Level FlightAware
04:21PM -20.2610 -40.2770 110° East 116 133  Level FlightAware
04:22PM -20.2610 -40.2760 90° East 116 133  Level FlightAware
04:24PM -20.3491 -40.3759 227° Southwest  Level Estimated
04:24PM -20.2570 -40.2890 227° Southwest 116 133  Level FlightAware
04:24PM -20.2580 -40.2890 180° South 116 133  Level FlightAware
04:24PM -20.2580 -40.2880 90° East 116 133  Level FlightAware
04:25PM -20.2570 -40.2880 360° North 116 133 60 Level FlightAware
04:26PM -20.2540 -40.2760 75° East 116 133 60 Level FlightAware
04:27PM -20.2580 -40.2880 250° West 116 133 60 Level FlightAware
04:28PM -20.2580 -40.2890 270° West 116 133 60 Level FlightAware
04:28PM -20.2590 -40.2890 180° South 116 133 120 Level FlightAware
04:29PM -20.2600 -40.2900 223° Southwest 116 133 120 Level FlightAware
04:29PM -20.2610 -40.2910 223° Southwest 116 133 120 Level FlightAware
04:29PM -20.2620 -40.2910 180° South 116 133 180 Level FlightAware
04:30PM -20.2640 -40.2910 180° South 116 133 240 Level FlightAware
04:31PM -20.2620 -40.2890 43° Northeast 116 133 300 Level FlightAware
04:31PM -20.2480 -40.2800 31° Northeast 147 169 400 1,680 Climbing FlightAware
04:31PM -20.2430 -40.2770 29° Northeast 144 166 900 2,040 Climbing FlightAware
04:32PM -20.2280 -40.2670 32° Northeast 163 188 1,500 1,320 Climbing FlightAware
04:32PM -20.2080 -40.2550 29° Northeast 204 235 2,000 1,620 Climbing FlightAware
04:32PM -20.2010 -40.2500 34° Northeast 211 243 2,400 3,000 Climbing FlightAware
04:32PM -20.1960 -40.2450 43° Northeast 215 247 2,800 2,160 Climbing FlightAware
04:32PM -20.1910 -40.2380 53° Northeast 221 254 3,100 2,460 Climbing FlightAware
04:33PM -20.1880 -40.2230 78° East 239 275 3,800 3,000 Climbing FlightAware
04:33PM -20.2000 -40.1950 115° Southeast 251 289 5,000 3,060 Climbing FlightAware
04:33PM -20.2070 -40.1890 141° Southeast 251 289 5,500 3,480 Climbing FlightAware
04:33PM -20.2190 -40.1720 127° Southeast 252 290 6,400 3,180 Climbing FlightAware
04:34PM -20.2370 -40.1570 142° Southeast 258 297 7,200 2,520 Climbing FlightAware
04:34PM -20.2460 -40.1550 168° South 258 297 7,600 2,460 Climbing FlightAware
04:34PM -20.2770 -40.1690 203° Southwest 258 297 8,900 2,760 Climbing FlightAware
04:35PM -20.2970 -40.1820 211° Southwest 268 308 9,700 1,680 Climbing FlightAware
04:35PM -20.3340 -40.2070 212° Southwest 304 350 10,400 960 Climbing FlightAware
04:36PM -20.3890 -40.2430 212° Southwest 359 413 11,000 960 Climbing FlightAware
04:36PM -20.4320 -40.2700 210° Southwest 390 449 11,500 1,620 Climbing FlightAware
04:37PM -20.4820 -40.3030 212° Southwest 397 457 12,900 2,520 Climbing FlightAware
04:38PM -20.5170 -40.3250 210° Southwest 387 445 14,200 2,460 Climbing FlightAware
04:38PM -20.5760 -40.3610 210° Southwest 388 447 15,600 1,920 Climbing FlightAware
04:39PM -20.6320 -40.3970 211° Southwest 392 451 16,800 1,920 Climbing FlightAware
04:39PM -20.6830 -40.4290 210° Southwest 395 455 17,900 1,860 Climbing FlightAware
04:40PM -20.7330 -40.4600 210° Southwest 401 461 18,900 1,800 Climbing FlightAware
04:41PM -20.7870 -40.4950 211° Southwest 398 458 20,100 2,040 Climbing FlightAware
04:41PM -20.8570 -40.5390 210° Southwest 404 465 21,300 2,040 Climbing FlightAware
04:42PM -20.9230 -40.5840 212° Southwest 405 466 22,600 1,920 Climbing FlightAware
04:42PM -20.9680 -40.6240 220° Southwest 405 466 23,700 1,800 Climbing FlightAware
04:43PM -21.0130 -40.6650 220° Southwest 402 463 24,600 1,800 Climbing FlightAware
04:44PM -21.0840 -40.7310 221° Southwest 407 468 25,900 1,680 Climbing FlightAware
04:44PM -21.1330 -40.7770 221° Southwest 413 475 26,700 1,620 Climbing FlightAware
04:45PM -21.1810 -40.8210 221° Southwest 409 471 27,700 1,080 Climbing FlightAware
04:45PM -21.2330 -40.8700 221° Southwest 405 466 28,000 240 Climbing FlightAware
04:46PM -21.2830 -40.9170 221° Southwest 406 467 28,000  Level FlightAware
04:46PM -21.3380 -40.9680 221° Southwest 408 470 28,000  Level FlightAware
04:47PM -21.3860 -41.0130 221° Southwest 408 470 28,000  Level FlightAware
04:48PM -21.4950 -41.1160 221° Southwest 408 470 28,000  Level FlightAware
04:48PM -21.4910 -41.1120 43° Northeast 408 470 28,000  Level FlightAware
04:49PM -21.5520 -41.1690 221° Southwest 408 470 28,000  Level FlightAware
04:50PM -21.5970 -41.2110 221° Southwest 408 470 28,000  Level FlightAware
04:50PM -21.7050 -41.3370 227° Southwest 405 466 28,000  Level FlightAware
04:51PM -21.7570 -41.3990 228° Southwest 403 464 28,000  Level FlightAware
04:52PM -21.7980 -41.4480 228° Southwest 403 464 28,000  Level FlightAware
04:52PM -21.8310 -41.4880 228° Southwest 403 464 28,000  Level FlightAware
04:53PM -21.8710 -41.5360 228° Southwest 403 464 28,000  Level FlightAware
04:53PM -21.9170 -41.5910 228° Southwest 403 464 28,000  Level FlightAware
04:54PM -21.9580 -41.6400 228° Southwest 403 464 28,000 -360 Level FlightAware
04:55PM -22.0130 -41.7070 228° Southwest 400 460 27,600 -1,200 Descending FlightAware
04:55PM -22.0530 -41.7560 229° Southwest 393 452 26,500 -1,980 Descending FlightAware
04:56PM -22.0930 -41.8040 228° Southwest 387 445 25,500 -1,920 Descending FlightAware
04:56PM -22.1310 -41.8500 228° Southwest 381 438 24,400 -1,980 Descending FlightAware
04:57PM -22.1690 -41.8960 228° Southwest 376 433 23,400 -1,860 Descending FlightAware
04:57PM -22.2210 -41.9580 228° Southwest 372 428 22,000 -1,860 Descending FlightAware
04:58PM -22.2590 -42.0050 229° Southwest 369 425 21,000 -1,860 Descending FlightAware
04:59PM -22.3050 -42.0610 228° Southwest 366 421 19,800 -1,740 Descending FlightAware
04:59PM -22.3460 -42.1110 228° Southwest 362 417 18,800 -1,320 Descending FlightAware
05:00PM -22.3810 -42.1530 228° Southwest 331 381 18,300 -1,440 Descending FlightAware
05:00PM -22.4160 -42.1960 229° Southwest 314 361 17,100 -1,500 Descending FlightAware
05:01PM -22.4550 -42.2450 229° Southwest 305 351 16,400 -1,020 Descending FlightAware
05:02PM -22.4810 -42.2780 230° Southwest 292 336 16,000 -1,440 Descending FlightAware
05:02PM -22.5170 -42.3240 230° Southwest 301 346 14,800 -1,440 Descending FlightAware
05:03PM -22.5440 -42.3570 228° Southwest 295 339 14,300 -1,080 Descending FlightAware
05:03PM -22.5830 -42.4060 229° Southwest 283 326 13,600 -960 Descending FlightAware
05:04PM -22.6120 -42.4430 230° Southwest 257 296 13,200 -1,080 Descending FlightAware
05:05PM -22.6420 -42.4790 228° Southwest 241 277 12,300 -1,320 Descending FlightAware
05:05PM -22.6640 -42.5070 230° Southwest 239 275 11,700 -900 Descending FlightAware
05:06PM -22.6890 -42.5390 230° Southwest 224 258 11,300 -900 Descending FlightAware
05:06PM -22.7110 -42.5660 229° Southwest 217 250 10,700 -1,260 Descending FlightAware
05:07PM -22.7250 -42.5730 205° Southwest 220 253 10,300 -960 Descending FlightAware
05:07PM -22.7540 -42.5630 162° South 234 269 10,000 -660 Descending FlightAware
05:07PM -22.7600 -42.5560 133° Southeast 237 273 9,900 -540 Descending FlightAware
05:07PM -22.7620 -42.5510 113° Southeast 237 273 9,900 -540 Level FlightAware
05:07PM -22.7630 -42.5430 98° East 239 275 9,800 -540 Descending FlightAware
05:08PM -22.7520 -42.5120 69° East 236 272 9,600 -600 Descending FlightAware
05:08PM -22.7400 -42.4980 47° Northeast 234 269 9,400 -720 Descending FlightAware
05:09PM -22.7270 -42.4830 47° Northeast 234 269 9,200 -600 Descending FlightAware
05:09PM -22.7110 -42.4630 49° Northeast 233 268 9,000 -480 Descending FlightAware
05:09PM -22.7060 -42.4580 43° Northeast 232 267 9,000 -420 Level FlightAware
05:09PM -22.6960 -42.4520 29° Northeast 230 265 8,900 -900 Descending FlightAware
05:09PM -22.6920 -42.4510 13° North 228 262 8,800 -600 Descending FlightAware
05:09PM -22.6860 -42.4510 360° North 226 260 8,800 -240 Level FlightAware
05:10PM -22.6660 -42.4600 337° Northwest 215 247 8,700 -420 Descending FlightAware
05:10PM -22.6610 -42.4670 308° West 212 244 8,600 -540 Descending FlightAware
05:10PM -22.6590 -42.4710 298° West 211 243 8,600 -360 Level FlightAware
05:10PM -22.6560 -42.4850 283° West 209 241 8,500 -360 Descending FlightAware
05:10PM -22.6580 -42.4970 260° West 211 243 8,400 -240 Descending FlightAware
05:11PM -22.6610 -42.5040 245° Southwest 215 247 8,400 -540 Level FlightAware
05:11PM -22.6770 -42.5230 228° Southwest 220 253 8,200 -840 Descending FlightAware
05:11PM -22.6930 -42.5430 229° Southwest 212 244 7,900 -720 Descending FlightAware
05:12PM -22.7030 -42.5600 237° Southwest 203 234 7,700 -480 Descending FlightAware
05:12PM -22.7040 -42.5670 261° West 196 226 7,700 -600 Level FlightAware
05:12PM -22.7040 -42.5810 270° West 192 221 7,500 -600 Descending FlightAware
05:12PM -22.7040 -42.6070 270° West 191 220 7,300 -600 Descending FlightAware
05:13PM -22.7050 -42.6280 267° West 190 219 7,000 -720 Descending FlightAware
05:13PM -22.7060 -42.6390 264° West 190 219 6,900 -720 Descending FlightAware
05:13PM -22.7070 -42.6610 267° West 190 219 6,600 -900 Descending FlightAware
05:14PM -22.7080 -42.6800 267° West 191 220 6,300 -840 Descending FlightAware
05:14PM -22.7090 -42.6960 266° West 188 216 6,100 -840 Descending FlightAware
05:14PM -22.7090 -42.7160 270° West 184 212 5,800 -900 Descending FlightAware
05:15PM -22.7100 -42.7340 267° West 190 219 5,500 -900 Descending FlightAware
05:15PM -22.7110 -42.7540 267° West 189 217 5,200 -900 Descending FlightAware
05:15PM -22.7120 -42.7670 265° West 188 216 5,000 -720 Descending FlightAware
05:15PM -22.7120 -42.7850 270° West 190 219 4,800 -720 Descending FlightAware
05:16PM -22.7130 -42.8000 266° West 188 216 4,600 -540 Descending FlightAware
05:16PM -22.7140 -42.8200 267° West 187 215 4,500 -480 Descending FlightAware
05:16PM -22.7150 -42.8380 267° West 186 214 4,300 -540 Descending FlightAware
05:17PM -22.7150 -42.8530 270° West 186 214 4,200 -360 Descending FlightAware
05:17PM -22.7170 -42.8720 263° West 187 215 4,100 -540 Descending FlightAware
05:17PM -22.7200 -42.8860 257° West 188 216 3,900 -720 Descending FlightAware
05:18PM -22.7230 -42.9030 259° West 188 216 3,700 -780 Descending FlightAware
05:18PM -22.7260 -42.9240 261° West 187 215 3,400 -840 Descending FlightAware
05:18PM -22.7300 -42.9440 258° West 186 214 3,100 -1,020 Descending FlightAware
05:19PM -22.7320 -42.9580 261° West 186 214 2,800 -960 Descending FlightAware
05:19PM -22.7330 -42.9680 264° West 187 215 2,700 -840 Descending FlightAware
05:19PM -22.7360 -42.9980 264° West 184 212 2,200 -1,020 Descending FlightAware
05:20PM -22.7410 -43.0180 255° West 186 214 1,800 -900 Descending FlightAware
05:20PM -22.7420 -43.0230 258° West 186 214 1,700 -360 Descending FlightAware
05:20PM -22.7470 -43.0450 256° West 178 205 1,600 -180 Descending FlightAware
05:21PM -22.7530 -43.0650 252° West 170 196 1,600  Level FlightAware
05:21PM -22.7580 -43.0860 256° West 168 193 1,600  Level FlightAware
05:22PM -22.7630 -43.1050 254° West 167 192 1,600  Level FlightAware
05:22PM -22.7670 -43.1210 255° West 162 186 1,600 -180 Level FlightAware
05:22PM -22.7700 -43.1330 255° West 154 177 1,500 -600 Descending FlightAware
05:22PM -22.7730 -43.1450 255° West 149 171 1,300 -720 Descending FlightAware
05:23PM -22.7760 -43.1560 254° West 135 155 1,100 -780 Descending FlightAware
05:23PM -22.7800 -43.1720 255° West 135 155 800 -780 Descending FlightAware
05:23PM -22.7830 -43.1820 252° West 139 160 600 -600 Descending FlightAware
05:24PM -22.7870 -43.1980 255° West 142 163 400 -600 Descending FlightAware
05:24PM -22.7910 -43.2120 253° West 138 159 100 -660 Descending FlightAware
05:24PM -22.7950 -43.2270 254° West 142 163 -540 Descending FlightAware
05:25PM -22.7950 -43.2110 90° East 142 163  Level FlightAware
05:27PM -22.8089 -43.2436 245° Southwest  Level Estimated
05:28PM -22.8089 -43.2436 137° Southeast  Level Estimated
05:28PM -22.8010 -43.2420 137° Southeast  Level FlightAware
05:30PM -22.8089 -43.2436 191° South  Level Estimated
05:31PM -22.8089 -43.2436 137° Southeast  Level Estimated
05:31PM -22.8080 -43.2560 137° Southeast  Level FlightAware